Terminal Aerodrome Forecast
Issued by NWS Upton, NY

Home | Current Version | Previous Version | Text Only | Print | Product List | Glossary On
Versions: 1 2 3 4 5 6 7 8 9 10 11 12 13 14 15 16 17 18 19 20 21 22 23 24 25 26 27
000
FTUS41 KOKX 222149 AAB
TAFBDR
TAF AMD
KBDR 222149Z 2222/2318 20014KT P6SM FEW050 SCT250
     FM230300 21012KT P6SM VCSH SCT015 BKN250
      TEMPO 2304/2308 6SM -SHRA
     FM230800 23008KT P6SM VCSH SCT015 BKN025
     FM231100 27005KT P6SM BKN050
     FM231500 31008KT P6SM SCT050 BKN100=

USA.gov is the U.S. government's official web portal to all federal, state and local government web resources and services.